MST,Max TemperatureF,Mean TemperatureF,Min TemperatureF,Max Dew PointF,MeanDew PointF,Min DewpointF,Max Humidity, Mean Humidity, Min Humidity, Max Sea Level PressureIn, Mean Sea Level PressureIn, Min Sea Level PressureIn, Max VisibilityMiles, Mean VisibilityMiles, Min VisibilityMiles, Max Wind SpeedMPH, Mean Wind SpeedMPH, Max Gust SpeedMPH,PrecipitationIn, CloudCover, Events, WindDirDegrees
2014-1-1,50,39,28,23,21,18,67,51,26,30.33,30.27,30.19,10,8,2,5,2,,0.00,0,,341
2014-1-2,46,37,28,24,21,18,69,55,32,30.40,30.32,30.22,10,8,2,4,1,,0.00,0,,340
2014-1-3,46,36,27,24,22,20,72,56,32,30.21,30.07,29.92,10,9,5,5,1,,0.00,0,,294
2014-1-4,54,41,28,23,11,-9,67,36,6,30.15,29.97,29.86,10,10,3,21,6,36,0.00,0,,299
2014-1-5,42,32,23,7,1,-7,42,25,9,30.42,30.31,30.16,10,10,5,7,3,,0.00,0,,26
2014-1-6,42,32,21,11,6,3,55,35,12,30.55,30.44,30.36,10,8,2,6,1,,0.00,0,,6
2014-1-7,41,33,25,13,11,8,53,40,19,30.35,30.25,30.15,10,8,4,5,1,,0.00,1,,248
2014-1-8,44,36,27,16,14,12,56,43,19,30.20,30.13,30.05,10,9,2,6,2,,0.00,0,,51
2014-1-9,44,36,27,20,17,15,69,47,31,30.12,30.03,29.91,10,9,5,5,2,,0.00,0,,217
2014-1-10,55,44,32,24,20,16,52,39,21,30.14,30.04,29.95,10,9,2,7,3,,0.00,0,,254
2014-1-11,54,44,33,26,24,22,61,45,25,30.22,30.10,29.91,10,10,6,6,3,,0.00,0,,155
2014-1-12,53,44,35,25,14,2,67,31,6,30.27,30.04,29.84,10,10,9,17,7,25,0.00,0,,311
2014-1-13,52,41,30,17,14,10,46,33,14,30.42,30.35,30.28,10,9,2,8,3,,0.00,0,,103
2014-1-14,53,42,30,18,17,15,52,35,15,30.51,30.43,30.33,10,10,8,8,3,,0.00,0,,97
2014-1-15,53,42,30,19,17,16,61,39,14,30.49,30.39,30.31,10,9,5,7,2,,0.00,0,,70
2014-1-16,53,40,28,20,17,15,54,41,13,30.42,30.33,30.28,10,8,1,5,2,,0.00,0,,240
2014-1-17,52,40,28,16,14,12,54,35,12,30.37,30.28,30.21,10,9,6,5,2,,0.00,0,,211
2014-1-18,53,40,28,19,16,12,51,37,15,30.35,30.27,30.20,10,9,2,5,2,,0.00,0,,261
2014-1-19,52,40,28,19,17,15,56,40,16,30.37,30.28,30.20,10,8,3,5,1,,0.00,0,,283
2014-1-20,52,40,28,22,19,17,61,44,20,30.46,30.33,30.21,10,9,4,4,1,,0.00,0,,314
2014-1-21,50,39,28,21,18,17,64,45,18,30.52,30.40,30.26,10,9,2,5,2,,0.00,0,,305
2014-1-22,48,38,28,21,19,16,61,48,24,30.25,30.10,29.99,10,9,5,6,1,,0.00,0,,329
2014-1-23,50,38,27,22,18,14,66,43,16,30.43,30.23,30.01,10,10,7,12,2,23,0.00,0,,87
2014-1-24,46,37,28,14,12,10,51,36,14,30.58,30.50,30.44,10,9,4,8,2,,0.00,0,,277
2014-1-25,48,38,27,16,12,10,53,36,13,30.46,30.32,30.19,10,9,5,5,1,,0.00,0,,169
2014-1-26,52,39,26,15,12,10,53,36,10,30.17,30.08,29.99,10,9,2,6,1,,0.00,0,,227
2014-1-27,54,42,30,14,11,6,44,27,9,30.05,29.99,29.92,10,10,9,7,2,,0.00,0,,164
2014-1-28,55,47,37,16,14,11,36,26,12,30.18,30.10,29.97,10,10,6,7,3,,0.00,0,,350
2014-1-29,53,42,30,15,14,13,48,31,11,30.17,30.03,29.83,10,10,4,5,2,,0.00,0,,74
2014-1-30,64,52,39,35,26,15,56,37,22,29.79,29.65,29.54,10,10,4,20,5,32,0.00,3,,234
2014-1-31,48,42,37,35,31,25,81,63,35,29.76,29.67,29.59,10,8,2,10,4,29,0.08,6,Rain,273